Time;durP1;ratioP1;P1;durP2;ratioP2;P2;SDS_P1;SDS_P2;PMS_P1;PMS_P2;Temp;Humidity;BMP_temperature;BMP_pressure;BME280_temperature;BME280_humidity;BME280_pressure;Samples;Min_cycle;Max_cycle;Signal;HPM_P1;HPM_P2
2022/06/26 00:01:53;;;;;;;2.40;1.70;;;22.30;53.80;;;22.65;45.64;97304.28;5024555;28;20057;-47
2022/06/26 00:04:20;;;;;;;1.98;1.77;;;22.30;54.00;;;22.61;46.15;97313.97;5025194;28;20052;-49
2022/06/26 00:06:48;;;;;;;2.60;2.08;;;22.20;54.10;;;22.56;46.22;97317.41;5025577;28;20336;-45
2022/06/26 00:09:16;;;;;;;2.78;2.13;;;22.20;54.50;;;22.53;46.52;97317.09;5025190;28;20046;-47
2022/06/26 00:11:44;;;;;;;2.25;1.67;;;22.20;54.70;;;22.49;46.44;97319.50;5025371;28;20408;-47
2022/06/26 00:14:12;;;;;;;3.30;2.30;;;22.10;54.80;;;22.48;46.37;97322.44;5025288;28;20247;-47
2022/06/26 00:16:40;;;;;;;2.00;1.60;;;22.20;54.70;;;22.47;46.23;97339.75;5025197;28;20056;-48
2022/06/26 00:19:08;;;;;;;2.55;1.70;;;22.20;54.70;;;22.49;46.13;97360.16;5025107;28;20042;-51
2022/06/26 00:21:35;;;;;;;3.28;1.88;;;22.20;54.40;;;22.42;46.05;97386.63;5024232;28;20042;-49
2022/06/26 00:24:04;;;;;;;3.00;2.70;;;22.20;54.00;;;21.87;49.48;97397.97;5041067;28;20050;-46
2022/06/26 00:26:32;;;;;;;2.50;2.30;;;21.50;60.60;;;21.81;49.63;97403.31;5025569;28;20054;-46
2022/06/26 00:28:59;;;;;;;3.25;2.50;;;21.30;60.80;;;21.86;49.32;97404.47;5024902;28;20056;-45
2022/06/26 00:31:27;;;;;;;5.03;3.47;;;21.30;60.20;;;21.83;48.86;97397.66;5024204;28;20053;-50
2022/06/26 00:33:55;;;;;;;3.38;1.90;;;21.40;59.40;;;21.79;49.22;97402.72;5025174;28;20049;-45
2022/06/26 00:36:23;;;;;;;2.47;2.28;;;21.40;59.00;;;21.85;49.00;97406.38;5024005;28;20065;-50
2022/06/26 00:38:52;;;;;;;4.97;2.20;;;21.50;58.50;;;21.96;48.67;97412.81;5024402;28;20050;-46
2022/06/26 00:41:20;;;;;;;3.67;2.22;;;21.70;57.80;;;22.08;48.05;97415.47;5024865;28;20253;-45
2022/06/26 00:43:48;;;;;;;2.53;2.03;;;21.80;57.30;;;22.00;48.17;97414.81;5025102;28;20060;-48
2022/06/26 00:46:16;;;;;;;3.20;2.33;;;21.70;58.10;;;21.97;48.53;97417.19;5024321;28;20045;-48
2022/06/26 00:48:45;;;;;;;2.60;2.30;;;21.60;58.00;;;21.90;49.03;97424.59;5023655;28;20058;-47
2022/06/26 00:51:12;;;;;;;2.17;1.98;;;21.50;58.90;;;21.94;49.13;97425.78;5040794;28;20050;-45
2022/06/26 00:53:41;;;;;;;3.80;2.40;;;21.50;58.70;;;21.96;48.91;97426.34;5025711;28;20076;-45
2022/06/26 00:56:09;;;;;;;2.50;2.28;;;21.60;58.60;;;21.98;48.91;97430.50;5023257;28;20053;-46
2022/06/26 00:58:37;;;;;;;2.60;2.10;;;21.60;58.20;;;21.96;48.68;97434.50;5024562;28;20236;-48
2022/06/26 01:01:05;;;;;;;3.63;2.45;;;21.60;58.50;;;21.94;48.96;97428.47;5023365;28;20048;-45
2022/06/26 01:03:33;;;;;;;2.78;2.03;;;21.60;58.40;;;21.98;48.87;97424.22;5024589;28;20045;-49
2022/06/26 01:06:01;;;;;;;2.88;1.90;;;21.70;58.10;;;21.94;49.28;97423.88;5039873;28;20060;-46
2022/06/26 01:08:28;;;;;;;1.98;1.80;;;21.60;59.10;;;21.84;50.26;97426.38;5040129;28;20050;-45
2022/06/26 01:10:56;;;;;;;2.30;2.05;;;21.60;59.80;;;21.83;50.80;97422.84;5022289;28;20256;-44
2022/06/26 01:13:25;;;;;;;2.60;1.90;;;21.60;60.30;;;21.69;51.44;97412.50;5040277;28;20053;-46
2022/06/26 01:15:53;;;;;;;2.25;1.98;;;21.50;61.60;;;21.55;52.07;97414.66;5023988;28;20225;-44
2022/06/26 01:18:21;;;;;;;2.95;2.10;;;21.30;62.90;;;21.53;51.86;97412.19;5023800;28;20354;-47
2022/06/26 01:20:54;;;;;;;2.55;2.10;;;21.30;63.00;;;21.47;52.25;97409.59;5023981;28;20235;-47
2022/06/26 01:23:23;;;;;;;2.20;2.00;;;21.20;64.50;;;21.38;52.90;97391.00;5023389;28;20050;-45
2022/06/26 01:25:50;;;;;;;2.53;1.90;;;21.10;64.10;;;21.41;52.65;97386.97;5022245;28;20046;-50
2022/06/26 01:28:19;;;;;;;2.38;1.75;;;21.20;64.20;;;21.36;53.09;97381.44;5022972;28;20052;-46
2022/06/26 01:30:48;;;;;;;1.95;1.75;;;21.10;64.90;;;21.33;52.88;97380.03;5023787;28;20052;-47
2022/06/26 01:33:16;;;;;;;2.28;2.03;;;21.10;65.10;;;21.21;53.29;97390.88;5023187;28;20049;-47
2022/06/26 01:35:44;;;;;;;3.03;1.80;;;20.90;64.90;;;;;;5006463;28;20060;-47
2022/06/26 01:38:18;;;;;;;5.85;2.30;;;21.10;63.90;;;21.46;53.26;97426.91;5022692;28;20058;-47
2022/06/26 01:40:46;;;;;;;2.00;1.80;;;21.20;64.30;;;21.38;53.28;97406.38;5023723;28;20236;-48
2022/06/26 01:43:17;;;;;;;2.35;1.88;;;21.10;64.60;;;21.24;53.45;97413.94;5023033;28;20050;-49
2022/06/26 01:45:53;;;;;;;1.88;1.65;;;21.00;65.70;;;21.13;53.72;97415.59;5024357;28;20057;-45
2022/06/26 01:48:28;;;;;;;1.90;1.35;;;20.90;65.60;;;21.15;53.37;97420.75;5023382;28;20042;-48
2022/06/26 01:50:59;;;;;;;1.75;1.60;;;20.80;65.50;;;20.97;53.88;97421.69;5022744;28;20056;-47
2022/06/26 01:53:29;;;;;;;1.65;1.55;;;20.70;67.00;;;20.92;53.66;97411.56;5023301;28;20049;-47
2022/06/26 01:55:57;;;;;;;2.35;1.60;;;20.60;66.50;;;20.76;54.11;97417.63;5038850;28;20056;-46
2022/06/26 01:58:33;;;;;;;2.78;1.80;;;20.40;67.30;;;20.65;54.64;97411.16;5022422;28;20058;-48
2022/06/26 02:01:03;;;;;;;1.77;1.63;;;20.30;68.30;;;20.49;54.95;97412.63;5022265;28;20046;-49
2022/06/26 02:03:32;;;;;;;1.60;1.42;;;20.10;68.80;;;20.43;54.85;97411.66;5038814;28;20367;-46
2022/06/26 02:06:00;;;;;;;1.60;1.30;;;20.00;69.30;;;20.32;54.87;97403.50;5006260;28;20055;-51
2022/06/26 02:08:30;;;;;;;3.10;1.60;;;20.00;68.60;;;20.43;54.48;97397.28;5021967;28;20271;-47
2022/06/26 02:13:46;;;;;;;1.83;1.70;;;20.20;67.80;;;20.51;54.24;97413.22;5023839;28;20057;-46
2022/06/26 02:16:28;;;;;;;1.73;1.42;;;20.20;68.60;;;20.52;54.49;97409.44;5038783;28;20060;-46
2022/06/26 02:18:57;;;;;;;2.03;1.40;;;20.20;68.50;;;20.57;54.31;97404.16;5038126;28;20059;-46
2022/06/26 02:21:28;;;;;;;1.50;1.40;;;20.20;67.80;;;20.61;54.22;97407.28;5023586;28;20319;-45
2022/06/26 02:23:59;;;;;;;2.40;1.40;;;20.20;67.50;;;20.64;53.86;97413.00;5023277;28;20049;-46
2022/06/26 02:26:28;;;;;;;1.92;1.58;;;20.30;67.20;;;20.68;53.77;97418.78;5038848;28;20252;-47
2022/06/26 02:28:57;;;;;;;1.77;1.50;;;20.30;66.80;;;20.74;53.45;97425.16;5021813;28;20060;-49
2022/06/26 02:31:28;;;;;;;1.38;1.27;;;20.40;66.70;;;20.69;53.31;97430.44;5022039;28;20360;-48
2022/06/26 02:33:56;;;;;;;1.90;1.50;;;20.20;67.00;;;20.60;53.55;97428.06;5038683;28;20053;-47
2022/06/26 02:36:26;;;;;;;1.90;1.63;;;20.10;67.20;;;20.60;53.14;97428.06;5021782;28;20060;-47
2022/06/26 02:38:54;;;;;;;1.20;1.10;;;20.20;66.50;;;20.50;53.53;97425.06;5021794;28;20050;-47
2022/06/26 02:41:22;;;;;;;1.85;1.50;;;20.00;66.80;;;20.57;53.15;97435.78;5022657;28;20045;-47
2022/06/26 02:43:50;;;;;;;1.38;1.27;;;20.20;66.20;;;20.43;53.38;97433.28;5022057;28;20046;-46
2022/06/26 02:46:19;;;;;;;1.50;1.40;;;20.00;66.70;;;20.43;53.54;97432.44;5022059;28;20046;-48
2022/06/26 02:48:49;;;;;;;2.63;1.60;;;20.00;66.60;;;20.47;53.61;97422.81;5021863;28;20053;-46
2022/06/26 02:51:19;;;;;;;1.30;1.20;;;20.10;66.30;;;20.53;53.32;97438.13;5022869;28;20064;-48
2022/06/26 02:53:47;;;;;;;1.73;1.10;;;20.20;66.00;;;20.57;53.49;97428.50;5038425;28;20050;-48
2022/06/26 02:56:15;;;;;;;1.65;1.23;;;20.20;65.40;;;20.63;52.76;97430.31;5038336;28;20049;-48
2022/06/26 02:58:42;;;;;;;1.50;1.20;;;20.30;65.00;;;20.69;53.18;97433.16;5037907;28;20054;-47
2022/06/26 03:01:12;;;;;;;1.70;1.20;;;20.40;65.10;;;20.71;53.13;97433.75;5021421;28;20050;-48
2022/06/26 03:03:40;;;;;;;1.52;1.42;;;20.40;64.80;;;20.74;52.90;97431.38;5021748;28;20056;-49
2022/06/26 03:06:10;;;;;;;1.67;1.30;;;20.50;65.10;;;20.73;53.01;97428.94;5021725;28;20054;-45
2022/06/26 03:08:39;;;;;;;2.35;1.40;;;20.40;65.00;;;20.68;53.10;97421.50;5037680;28;20064;-52
2022/06/26 03:11:07;;;;;;;5.07;1.30;;;20.30;65.10;;;20.70;53.02;97415.84;5020594;28;20117;-46
2022/06/26 03:13:37;;;;;;;1.95;1.38;;;20.30;64.80;;;20.72;52.46;97419.97;5021693;28;20053;-50
2022/06/26 03:16:05;;;;;;;1.67;1.33;;;20.30;64.60;;;20.67;52.84;97417.16;5038314;28;20053;-46
2022/06/26 03:18:33;;;;;;;1.85;1.40;;;20.30;64.90;;;20.70;52.78;97418.56;5020987;28;20060;-50
2022/06/26 03:21:01;;;;;;;2.67;1.33;;;20.30;64.90;;;20.71;52.76;97415.63;5005597;28;20048;-48
2022/06/26 03:26:15;;;;;;;1.50;1.40;;;20.30;64.50;;;20.71;52.68;97409.41;5022871;28;20050;-52
2022/06/26 03:28:43;;;;;;;2.10;1.58;;;20.30;64.30;;;20.73;52.85;97397.28;5022346;28;20214;-48
2022/06/26 03:31:12;;;;;;;1.65;1.25;;;20.40;64.60;;;20.71;53.05;97387.78;5021788;28;20064;-50
2022/06/26 03:33:40;;;;;;;1.70;1.40;;;20.40;64.60;;;20.70;52.67;97391.50;5021616;28;20057;-49
2022/06/26 03:36:08;;;;;;;1.70;1.60;;;20.30;64.70;;;20.68;52.58;97409.84;5037348;28;20115;-50
2022/06/26 03:38:37;;;;;;;1.73;1.10;;;20.30;64.70;;;20.61;53.12;97416.19;5036916;28;20054;-49
2022/06/26 03:41:05;;;;;;;2.25;1.33;;;20.20;65.00;;;20.56;52.87;97426.84;5020911;28;20227;-45
2022/06/26 03:43:33;;;;;;;1.25;1.13;;;20.10;65.40;;;20.55;53.29;97435.19;5037722;28;20279;-50
2022/06/26 03:46:01;;;;;;;1.10;1.10;;;20.10;65.70;;;20.52;53.41;97441.06;5021756;28;20046;-46
2022/06/26 03:48:31;;;;;;;2.70;1.48;;;20.10;65.80;;;20.52;53.15;97439.19;5037348;28;20056;-49
2022/06/26 03:50:59;;;;;;;1.23;1.10;;;20.10;66.00;;;20.49;53.58;97436.09;5037812;28;20079;-46
2022/06/26 03:53:28;;;;;;;2.70;1.70;;;20.10;66.30;;;20.46;53.63;97440.09;5004736;28;20267;-49
2022/06/26 03:55:56;;;;;;;1.75;1.58;;;20.00;66.10;;;20.46;53.37;97435.50;5020960;28;20058;-47
2022/06/26 03:58:25;;;;;;;1.30;1.20;;;20.00;66.00;;;20.44;53.39;97434.91;5036972;28;20060;-48
2022/06/26 04:00:53;;;;;;;1.45;1.20;;;20.00;65.70;;;20.41;53.42;97437.25;5020287;28;20363;-47
2022/06/26 04:03:22;;;;;;;1.40;1.25;;;20.10;65.80;;;20.45;53.35;97435.72;5021910;28;20041;-47
2022/06/26 04:05:50;;;;;;;1.55;1.40;;;20.10;65.60;;;20.48;53.35;97426.34;5020656;28;20177;-46
2022/06/26 04:08:19;;;;;;;1.10;1.00;;;20.10;65.50;;;20.48;53.27;97432.56;5037475;28;20328;-45
2022/06/26 04:11:00;;;;;;;1.75;1.30;;;20.20;65.40;;;20.49;53.33;97433.41;5020060;28;20068;-49
2022/06/26 04:13:34;;;;;;;1.50;1.20;;;20.20;65.40;;;20.54;53.31;97438.94;5020655;28;20060;-44
2022/06/26 04:16:04;;;;;;;1.30;1.20;;;20.20;65.40;;;20.56;53.38;97448.47;5020309;28;20050;-46
2022/06/26 04:18:36;;;;;;;1.40;1.30;;;20.30;65.50;;;20.61;53.03;97445.13;5037053;28;20054;-45
2022/06/26 04:21:05;;;;;;;1.38;1.27;;;20.40;64.90;;;20.67;52.83;97443.38;5037303;28;20046;-46
2022/06/26 04:23:36;;;;;;;1.42;1.33;;;20.40;64.40;;;20.68;52.59;97434.19;5021534;28;20046;-47
2022/06/26 04:26:08;;;;;;;2.13;1.20;;;20.40;64.00;;;20.69;52.68;97433.97;5040846;28;20049;-47
2022/06/26 04:28:36;;;;;;;2.63;1.30;;;20.40;63.90;;;20.70;52.38;97429.38;5026060;28;20052;-44
2022/06/26 04:31:07;;;;;;;1.58;1.20;;;20.40;63.70;;;20.66;52.67;97429.00;5024355;28;20064;-45
2022/06/26 04:33:37;;;;;;;1.40;1.30;;;20.40;63.80;;;20.66;52.81;97431.72;5024164;28;20060;-46
2022/06/26 04:36:07;;;;;;;1.20;1.10;;;20.30;64.00;;;20.64;52.76;97423.00;5023806;28;20255;-49
2022/06/26 04:38:37;;;;;;;1.30;1.20;;;20.30;64.00;;;20.64;53.04;97425.72;5040063;28;20050;-46
2022/06/26 04:43:52;;;;;;;1.40;1.30;;;20.30;64.30;;;20.64;53.20;97425.72;5024606;28;20343;-47
2022/06/26 04:46:20;;;;;;;1.80;1.30;;;20.30;64.60;;;20.63;53.31;97410.56;5023870;28;20046;-44
2022/06/26 04:48:49;;;;;;;2.75;1.60;;;20.40;64.80;;;20.62;53.15;97412.41;5040169;28;20046;-47
2022/06/26 04:51:18;;;;;;;2.55;1.83;;;20.40;65.00;;;20.63;53.23;97424.09;5040398;28;20056;-48
2022/06/26 04:53:47;;;;;;;1.92;1.77;;;20.30;65.20;;;20.62;53.56;97434.06;5022855;28;20056;-46
2022/06/26 04:56:15;;;;;;;3.13;1.60;;;20.30;65.60;;;20.61;53.68;97443.25;5024090;28;20072;-45
2022/06/26 04:58:46;;;;;;;3.13;1.40;;;20.30;66.20;;;20.58;54.11;97451.78;5040034;28;20054;-45
2022/06/26 05:01:15;;;;;;;1.80;1.50;;;20.20;66.80;;;20.55;54.20;97440.59;5024693;28;20046;-44
2022/06/26 05:04:21;;;;;;;1.85;1.48;;;20.20;67.10;;;20.51;54.00;97434.00;5026434;28;20050;-47
2022/06/26 05:07:07;;;;;;;1.85;1.60;;;20.10;67.20;;;20.44;54.17;97440.31;5023229;28;20068;-46
2022/06/26 05:09:37;;;;;;;2.28;1.50;;;20.00;66.70;;;20.44;54.27;97445.72;5007696;28;20052;-45
2022/06/26 05:12:06;;;;;;;1.90;1.58;;;20.10;66.80;;;20.42;53.95;97453.25;5039265;28;20049;-47
2022/06/26 05:14:54;;;;;;;2.10;1.50;;;20.00;66.70;;;20.37;54.13;97455.81;5023735;28;20057;-49
2022/06/26 05:17:33;;;;;;;2.97;1.50;;;20.00;66.60;;;20.36;54.09;97454.16;5039222;28;20053;-45
2022/06/26 05:20:01;;;;;;;1.60;1.50;;;20.00;66.80;;;20.36;54.22;97454.16;5024234;28;20117;-46
2022/06/26 05:22:29;;;;;;;1.38;1.27;;;20.00;67.70;;;20.34;54.35;97467.09;5024139;28;20041;-45
2022/06/26 05:25:00;;;;;;;2.10;1.75;;;20.00;67.20;;;20.31;54.77;97470.22;5022339;28;20050;-45
2022/06/26 05:27:28;;;;;;;2.17;1.55;;;20.00;67.50;;;20.29;55.14;97480.44;5039343;28;20054;-45
2022/06/26 05:29:56;;;;;;;1.60;1.50;;;19.90;68.00;;;20.31;55.12;97481.03;5022550;28;20053;-49
2022/06/26 05:32:25;;;;;;;1.65;1.55;;;20.00;68.40;;;20.32;54.97;97480.00;5039696;28;20359;-48
2022/06/26 05:34:55;;;;;;;2.58;1.40;;;20.00;68.50;;;20.32;54.73;97484.59;5039167;28;20371;-45
2022/06/26 05:37:23;;;;;;;1.52;1.23;;;20.00;68.30;;;20.33;55.13;97484.34;5038970;28;20053;-45
2022/06/26 05:39:51;;;;;;;2.22;1.60;;;19.90;68.70;;;20.32;54.82;97481.91;5022976;28;20054;-45
2022/06/26 05:42:21;;;;;;;1.67;1.40;;;19.90;68.70;;;20.27;54.99;97480.66;5023274;28;20042;-44
2022/06/26 05:44:49;;;;;;;2.15;1.30;;;19.90;68.80;;;20.26;55.09;97486.31;5039259;28;20049;-47
2022/06/26 05:47:19;;;;;;;1.60;1.50;;;19.90;68.60;;;20.21;55.26;97494.28;5022765;28;20060;-45
2022/06/26 05:50:16;;;;;;;2.53;1.42;;;19.80;68.90;;;20.23;54.95;97493.00;5074900;28;20059;-47
2022/06/26 05:52:56;;;;;;;2.08;1.55;;;19.80;68.80;;;20.22;55.23;97502.16;5022001;28;20050;-50
2022/06/26 05:55:45;;;;;;;1.90;1.55;;;19.80;68.70;;;20.24;55.41;97496.53;5023431;28;20064;-46
2022/06/26 05:58:32;;;;;;;2.10;1.73;;;19.90;68.90;;;20.18;55.88;97502.84;5028322;28;20048;-47
2022/06/26 06:01:23;;;;;;;1.90;1.70;;;19.80;70.20;;;20.18;55.48;97500.13;5031560;28;20060;-45
2022/06/26 06:04:00;;;;;;;2.90;1.50;;;19.80;70.20;;;20.20;55.75;97495.31;5022300;28;20049;-47
2022/06/26 06:06:28;;;;;;;2.55;1.58;;;19.80;70.30;;;20.20;56.02;97482.66;5039110;28;20260;-45
2022/06/26 06:08:56;;;;;;;2.10;1.90;;;19.90;70.30;;;20.28;56.20;97484.22;5023020;28;20362;-48
2022/06/26 06:11:26;;;;;;;2.08;1.83;;;20.00;70.20;;;20.36;56.12;97494.72;5038391;28;20054;-45
2022/06/26 06:13:55;;;;;;;2.92;1.83;;;20.10;70.40;;;20.38;56.39;97487.19;5038327;28;20374;-47
2022/06/26 06:16:25;;;;;;;2.95;1.77;;;20.20;70.80;;;20.44;56.58;97489.00;5039019;28;20058;-44
2022/06/26 06:18:54;;;;;;;1.80;1.60;;;20.30;70.70;;;20.50;56.15;97489.13;5038663;28;20344;-46
2022/06/26 06:21:27;;;;;;;1.50;1.40;;;20.30;69.70;;;20.59;55.67;97485.06;5022679;28;20060;-46
2022/06/26 06:23:55;;;;;;;3.10;1.63;;;20.40;69.20;;;20.61;55.16;97493.81;5022172;28;20050;-48
2022/06/26 06:26:25;;;;;;;1.60;1.30;;;20.40;68.20;;;20.64;55.06;97490.63;5039050;28;20053;-45
2022/06/26 06:29:00;;;;;;;1.73;1.58;;;20.50;67.60;;;20.68;54.65;97499.94;5037391;28;20072;-46
2022/06/26 06:31:28;;;;;;;2.08;1.65;;;20.50;66.70;;;20.74;54.49;97500.91;5023003;28;20359;-45
2022/06/26 06:33:56;;;;;;;1.73;1.63;;;20.60;66.50;;;20.71;55.09;97509.50;5038253;28;20056;-45
2022/06/26 06:36:25;;;;;;;1.63;1.52;;;20.60;67.60;;;20.76;55.62;97518.56;5022326;28;20229;-49
2022/06/26 06:38:53;;;;;;;1.88;1.50;;;20.70;68.00;;;20.82;55.35;97516.78;5021642;28;20049;-47
2022/06/26 06:41:22;;;;;;;2.25;1.58;;;20.70;67.20;;;20.79;54.63;97528.91;5021738;28;20050;-46
2022/06/26 06:44:05;;;;;;;1.60;1.50;;;20.70;66.60;;;20.84;54.62;97520.13;5038522;28;20046;-45
2022/06/26 06:46:32;;;;;;;1.50;1.40;;;20.70;66.90;;;20.82;54.99;97516.78;5022138;28;20048;-49
2022/06/26 06:49:06;;;;;;;;;;;20.70;67.10;;;20.87;55.02;97508.81;5021990;28;20056;-46
2022/06/26 06:51:48;;;;;;;3.15;1.60;;;20.80;68.50;;;20.92;54.88;97506.25;5007583;28;19917;-46
2022/06/26 06:54:16;;;;;;;1.80;1.60;;;20.80;67.00;;;20.96;54.87;97520.97;5005452;28;20052;-51
2022/06/26 06:56:46;;;;;;;2.58;2.38;;;20.90;66.50;;;20.96;54.97;97518.28;5037635;28;20045;-46
2022/06/26 06:59:15;;;;;;;1.38;1.27;;;20.90;66.40;;;20.94;55.24;97524.97;5022390;28;20038;-45
2022/06/26 07:01:44;;;;;;;1.52;1.40;;;20.90;67.00;;;20.98;54.43;97532.38;5021625;28;20050;-45
2022/06/26 07:04:13;;;;;;;1.92;1.75;;;20.90;66.70;;;20.94;54.50;97542.03;5038210;28;20056;-49
2022/06/26 07:06:41;;;;;;;1.70;1.60;;;20.90;66.10;;;20.94;54.33;97541.22;5037760;28;20046;-49
2022/06/26 07:09:10;;;;;;;2.90;1.70;;;20.90;65.50;;;20.96;54.19;97553.44;5021351;28;20045;-45
2022/06/26 07:11:38;;;;;;;3.75;1.80;;;20.90;65.40;;;20.94;54.35;97557.44;5022378;28;20048;-47
2022/06/26 07:14:06;;;;;;;1.73;1.52;;;20.80;65.80;;;20.95;54.28;97549.06;5022442;28;20241;-46
2022/06/26 07:16:35;;;;;;;2.30;1.42;;;20.90;65.70;;;21.04;54.29;97555.00;5022920;28;20050;-46
2022/06/26 07:19:04;;;;;;;3.08;1.75;;;20.90;65.70;;;21.09;54.30;97546.19;5021365;28;20049;-46
2022/06/26 07:21:32;;;;;;;2.72;1.67;;;21.00;65.90;;;21.02;54.51;97554.41;5005543;28;20050;-46
2022/06/26 07:24:02;;;;;;;1.95;1.67;;;20.90;65.90;;;21.09;54.26;97540.75;5021170;28;20046;-50
2022/06/26 07:26:48;;;;;;;1.40;1.30;;;21.00;65.40;;;21.09;54.33;97552.41;5021124;28;20049;-48
2022/06/26 07:29:16;;;;;;;2.28;1.70;;;21.00;66.20;;;21.18;54.39;97539.38;5037506;28;20045;-46
2022/06/26 07:31:44;;;;;;;1.55;1.35;;;21.10;66.00;;;21.23;54.41;97543.06;5037836;28;20076;-48
2022/06/26 07:34:18;;;;;;;1.80;1.30;;;21.20;65.30;;;21.29;53.10;97541.31;5038068;28;20057;-46
2022/06/26 07:36:48;;;;;;;2.13;1.38;;;21.30;62.30;;;21.35;51.91;97551.19;5021120;28;20053;-46
2022/06/26 07:39:19;;;;;;;2.00;1.25;;;21.40;61.40;;;21.32;51.20;97540.81;5020797;28;20057;-49
2022/06/26 07:41:49;;;;;;;1.30;1.20;;;21.40;61.30;;;21.41;52.03;97544.03;5037248;28;20340;-47
2022/06/26 07:44:18;;;;;;;1.40;1.30;;;21.40;61.40;;;21.41;52.79;97541.31;5037440;28;20359;-47
2022/06/26 07:46:47;;;;;;;2.05;1.80;;;21.40;63.00;;;21.39;53.27;97536.13;5021074;28;20194;-46
2022/06/26 07:49:25;;;;;;;1.65;1.55;;;21.40;63.40;;;21.41;53.05;97538.59;5020775;28;20046;-48
2022/06/26 07:51:59;;;;;;;3.80;1.70;;;21.50;63.30;;;21.47;53.26;97537.69;5021072;28;20345;-47
2022/06/26 07:54:27;;;;;;;1.58;1.48;;;21.50;63.30;;;21.49;52.63;97535.59;5021807;28;20052;-49
2022/06/26 07:56:55;;;;;;;1.42;1.33;;;21.50;62.60;;;21.52;52.59;97534.28;5021882;28;20056;-46
2022/06/26 07:59:23;;;;;;;1.63;1.50;;;21.50;62.30;;;21.50;52.41;97529.13;5024555;28;20060;-46
2022/06/26 08:01:50;;;;;;;1.65;1.40;;;21.50;61.40;;;21.57;52.41;97535.22;5025424;28;20209;-46
2022/06/26 08:04:18;;;;;;;1.55;1.40;;;21.60;61.70;;;21.62;52.14;97531.84;5025745;28;20050;-47
2022/06/26 08:06:46;;;;;;;1.48;1.38;;;21.70;61.90;;;21.67;51.90;97523.81;5026008;28;20054;-49
2022/06/26 08:09:14;;;;;;;1.58;1.23;;;21.70;61.70;;;21.73;52.61;97531.03;5025285;28;20109;-45
2022/06/26 08:11:42;;;;;;;1.55;1.45;;;21.80;62.10;;;21.78;52.39;97531.13;5039613;28;20374;-46
2022/06/26 08:14:10;;;;;;;1.70;1.42;;;21.80;61.40;;;21.76;52.40;97530.53;5042842;28;20067;-49
2022/06/26 08:16:38;;;;;;;2.33;1.38;;;21.80;61.10;;;21.78;51.80;97525.69;5045183;28;20045;-46
2022/06/26 08:19:06;;;;;;;1.60;1.48;;;21.80;60.50;;;21.71;52.14;97524.16;5045191;28;20049;-49
2022/06/26 08:24:21;;;;;;;1.40;1.30;;;21.80;61.10;;;21.86;51.53;97515.56;5045433;28;20059;-48
2022/06/26 08:26:49;;;;;;;2.05;1.20;;;22.00;60.20;;;21.89;51.20;97520.50;5043663;28;20052;-46
2022/06/26 08:29:17;;;;;;;1.83;1.55;;;22.00;59.70;;;21.92;51.36;97528.16;5045404;28;20346;-46
2022/06/26 08:31:45;;;;;;;1.83;1.70;;;22.00;59.90;;;21.98;51.31;97535.34;5044895;28;20045;-48
2022/06/26 08:34:13;;;;;;;1.80;1.48;;;22.00;60.50;;;22.07;51.20;97531.22;5044802;28;20049;-45
2022/06/26 08:36:41;;;;;;;1.30;1.20;;;22.10;60.60;;;22.08;51.32;97532.03;5045362;28;20056;-51
2022/06/26 08:39:09;;;;;;;1.40;1.30;;;22.10;60.40;;;22.13;50.92;97535.69;5044434;28;20347;-50
2022/06/26 08:41:43;;;;;;;1.48;1.33;;;22.20;59.70;;;22.10;49.02;97530.75;5044771;28;20062;-47
2022/06/26 08:44:12;;;;;;;1.52;1.42;;;22.20;56.50;;;22.15;49.99;97538.16;5044179;28;20087;-47
2022/06/26 08:46:43;;;;;;;1.88;1.33;;;22.20;57.80;;;22.18;49.74;97532.28;5044903;28;20056;-47
2022/06/26 08:49:19;;;;;;;1.50;1.40;;;22.30;57.00;;;22.22;49.10;97536.97;5044408;28;20051;-47
2022/06/26 08:51:48;;;;;;;1.30;1.20;;;22.40;56.30;;;22.25;49.01;97532.97;5044730;28;20419;-47
2022/06/26 08:54:17;;;;;;;2.80;1.45;;;22.40;56.30;;;22.26;48.88;97536.53;5044384;28;20053;-46
2022/06/26 08:56:48;;;;;;;2.15;1.25;;;22.40;56.00;;;22.30;49.00;97533.09;5044282;28;20053;-45
2022/06/26 08:59:18;;;;;;;2.22;1.85;;;22.40;56.80;;;22.31;50.07;97534.72;5044253;28;20060;-47
2022/06/26 09:01:47;;;;;;;1.55;1.30;;;22.50;57.90;;;22.39;49.75;97537.09;5042844;28;20053;-46
2022/06/26 09:04:16;;;;;;;1.45;1.35;;;22.50;57.20;;;22.40;49.85;97530.59;5044244;28;20053;-48
2022/06/26 09:06:44;;;;;;;1.50;1.30;;;22.60;57.50;;;22.49;49.80;97531.06;5044291;28;20053;-46
2022/06/26 09:09:23;;;;;;;1.58;1.45;;;22.70;57.80;;;22.49;49.28;97532.91;5043304;28;20362;-45
2022/06/26 09:12:00;;;;;;;1.55;1.45;;;22.70;57.20;;;22.51;50.04;97528.91;5043319;28;20046;-49
2022/06/26 09:14:30;;;;;;;1.80;1.40;;;22.70;57.70;;;22.60;49.41;97538.34;5042943;28;20053;-46
2022/06/26 09:16:59;;;;;;;1.10;1.08;;;22.80;57.40;;;22.59;49.68;97544.81;5043025;28;20115;-45
2022/06/26 09:19:33;;;;;;;4.32;1.70;;;22.80;57.20;;;22.62;49.03;97548.91;5043579;28;20356;-46
2022/06/26 09:22:11;;;;;;;1.65;1.55;;;22.90;56.30;;;22.63;48.75;97553.28;5044202;28;20068;-46
2022/06/26 09:24:50;;;;;;;1.50;1.30;;;22.80;56.50;;;22.67;49.33;97545.50;5043688;28;20041;-46
2022/06/26 09:27:18;;;;;;;2.17;1.40;;;22.80;56.90;;;22.66;49.35;97544.66;5043872;28;20068;-47
2022/06/26 09:29:52;;;;;;;1.75;1.65;;;22.80;56.60;;;22.61;48.17;97548.09;5043601;28;20045;-47
2022/06/26 09:32:22;;;;;;;1.50;1.40;;;22.80;55.40;;;22.77;48.85;97548.41;5042692;28;20236;-51
2022/06/26 09:34:53;;;;;;;1.60;1.50;;;22.90;56.30;;;22.80;49.13;97545.22;5043518;28;20056;-44
2022/06/26 09:37:23;;;;;;;1.48;1.38;;;22.90;56.80;;;22.89;49.41;97556.50;5043579;28;20053;-47
2022/06/26 09:40:15;;;;;;;1.70;1.60;;;23.10;57.30;;;22.90;49.04;97558.16;5043749;28;20061;-48
2022/06/26 09:42:44;;;;;;;2.35;1.80;;;23.10;56.40;;;23.02;49.17;97544.53;5044111;28;20049;-45
2022/06/26 09:45:11;;;;;;;2.25;1.63;;;23.30;56.50;;;23.11;48.34;97541.22;5042188;28;20045;-47
2022/06/26 09:47:42;;;;;;;1.55;1.45;;;23.40;55.20;;;23.26;48.63;97539.81;5043203;28;20063;-48
2022/06/26 09:50:11;;;;;;;1.90;1.60;;;23.50;56.00;;;23.29;48.65;97532.00;5042571;28;20055;-47
2022/06/26 09:52:38;;;;;;;1.80;1.70;;;23.60;55.60;;;23.41;48.41;97531.91;5043378;28;20389;-47
2022/06/26 09:55:08;;;;;;;1.98;1.60;;;23.70;55.20;;;23.46;48.24;97540.16;5043079;28;20056;-51
2022/06/26 09:57:37;;;;;;;1.80;1.70;;;23.80;54.90;;;23.61;48.67;97539.56;5043018;28;20050;-46
2022/06/26 10:00:06;;;;;;;1.70;1.60;;;23.90;55.70;;;23.75;48.56;97538.19;5043829;28;20259;-47
2022/06/26 10:08:21;;;;;;;1.80;1.60;;;24.40;55.00;;;24.11;48.31;97546.88;5042477;28;20053;-46
2022/06/26 10:10:49;;;;;;;1.83;1.73;;;24.50;54.60;;;23.87;49.07;97543.53;5041125;28;20050;-47
2022/06/26 10:13:24;;;;;;;2.10;1.90;;;24.10;56.30;;;23.76;49.19;97539.00;5041510;28;20059;-47
2022/06/26 10:16:31;;;;;;;1.77;1.67;;;23.90;56.90;;;23.83;49.21;97542.41;5042665;28;20045;-47
2022/06/26 10:19:10;;;;;;;2.22;1.63;;;23.90;57.00;;;23.92;49.60;97538.19;5056972;28;20058;-46
2022/06/26 10:21:39;;;;;;;1.95;1.77;;;24.10;57.40;;;23.92;48.87;97540.06;5042757;28;20041;-47
2022/06/26 10:24:07;;;;;;;2.17;1.98;;;24.20;56.30;;;24.02;49.16;97542.94;5042883;28;20064;-43
2022/06/26 10:26:36;;;;;;;2.20;2.00;;;24.30;56.40;;;24.17;48.55;97545.88;5042802;28;20244;-48
2022/06/26 10:29:09;;;;;;;1.77;1.55;;;24.60;55.50;;;24.28;47.07;97549.56;5042170;28;20042;-48
2022/06/26 10:31:49;;;;;;;1.50;1.40;;;24.70;53.50;;;24.44;47.19;97534.25;5042807;28;20041;-48
2022/06/26 10:34:25;;;;;;;1.45;1.35;;;24.90;52.90;;;24.59;47.16;97530.91;5043192;28;20063;-46
2022/06/26 10:37:00;;;;;;;;;;;25.10;53.60;;;24.57;46.90;97530.34;5043101;28;20045;-45
2022/06/26 10:39:41;;;;;;;1.65;1.55;;;25.10;52.90;;;24.64;46.01;97533.72;5042110;28;19917;-48
2022/06/26 10:45:37;;;;;;;2.10;1.88;;;25.30;52.20;;;24.89;45.74;97535.91;5042023;28;20235;-47
2022/06/26 10:48:23;;;;;;;1.80;1.70;;;25.30;51.40;;;24.69;44.88;97533.75;5040944;28;20048;-47
2022/06/26 10:51:03;;;;;;;2.45;1.83;;;25.00;50.80;;;24.62;44.60;97524.13;5042460;28;20042;-46
2022/06/26 10:53:39;;;;;;;3.33;2.22;;;24.80;51.20;;;24.73;46.03;97524.00;5042388;28;20048;-48
2022/06/26 10:56:08;;;;;;;4.40;1.80;;;25.00;52.90;;;24.86;46.91;97533.66;5042219;28;20045;-47